sensor_id;sensor_type;location;lat;lon;timestamp;P1;durP1;ratioP1;P2;durP2;ratioP2
52380;SDS011;38310;52.796;6.942;2023-04-15T00:00:11;14.65;;;10.52;;
52380;SDS011;38310;52.796;6.942;2023-04-15T00:02:37;17.85;;;10.65;;
52380;SDS011;38310;52.796;6.942;2023-04-15T00:05:03;12.30;;;11.00;;
52380;SDS011;38310;52.796;6.942;2023-04-15T00:07:30;11.80;;;10.55;;
52380;SDS011;38310;52.796;6.942;2023-04-15T00:09:56;15.95;;;12.25;;
52380;SDS011;38310;52.796;6.942;2023-04-15T00:12:22;12.38;;;10.90;;
52380;SDS011;38310;52.796;6.942;2023-04-15T00:14:49;13.15;;;11.27;;
52380;SDS011;38310;52.796;6.942;2023-04-15T00:17:15;13.93;;;10.40;;
52380;SDS011;38310;52.796;6.942;2023-04-15T00:19:41;12.82;;;10.95;;
52380;SDS011;38310;52.796;6.942;2023-04-15T00:22:08;13.55;;;11.02;;
52380;SDS011;38310;52.796;6.942;2023-04-15T00:24:34;15.73;;;11.98;;
52380;SDS011;38310;52.796;6.942;2023-04-15T00:27:00;12.38;;;11.02;;
52380;SDS011;38310;52.796;6.942;2023-04-15T00:29:27;17.10;;;11.25;;
52380;SDS011;38310;52.796;6.942;2023-04-15T00:31:54;12.05;;;10.75;;
52380;SDS011;38310;52.796;6.942;2023-04-15T00:34:21;15.05;;;11.27;;
52380;SDS011;38310;52.796;6.942;2023-04-15T00:36:47;13.88;;;10.93;;
52380;SDS011;38310;52.796;6.942;2023-04-15T00:39:13;13.77;;;11.23;;
52380;SDS011;38310;52.796;6.942;2023-04-15T00:41:40;16.02;;;11.90;;
52380;SDS011;38310;52.796;6.942;2023-04-15T00:44:07;13.93;;;11.60;;
52380;SDS011;38310;52.796;6.942;2023-04-15T00:46:36;14.60;;;11.50;;
52380;SDS011;38310;52.796;6.942;2023-04-15T00:49:03;16.75;;;11.25;;
52380;SDS011;38310;52.796;6.942;2023-04-15T00:51:30;14.20;;;11.88;;
52380;SDS011;38310;52.796;6.942;2023-04-15T00:53:58;14.35;;;11.23;;
52380;SDS011;38310;52.796;6.942;2023-04-15T00:56:24;14.30;;;11.75;;
52380;SDS011;38310;52.796;6.942;2023-04-15T00:58:51;14.07;;;12.68;;
52380;SDS011;38310;52.796;6.942;2023-04-15T01:01:19;19.52;;;13.55;;
52380;SDS011;38310;52.796;6.942;2023-04-15T01:03:46;17.50;;;12.98;;
52380;SDS011;38310;52.796;6.942;2023-04-15T01:06:14;14.93;;;11.77;;
52380;SDS011;38310;52.796;6.942;2023-04-15T01:08:41;14.50;;;11.10;;
52380;SDS011;38310;52.796;6.942;2023-04-15T01:11:07;17.48;;;13.65;;
52380;SDS011;38310;52.796;6.942;2023-04-15T01:13:33;17.98;;;12.43;;
52380;SDS011;38310;52.796;6.942;2023-04-15T01:16:00;18.02;;;13.00;;
52380;SDS011;38310;52.796;6.942;2023-04-15T01:18:27;16.45;;;12.75;;
52380;SDS011;38310;52.796;6.942;2023-04-15T01:20:54;14.80;;;12.77;;
52380;SDS011;38310;52.796;6.942;2023-04-15T01:23:20;15.05;;;13.18;;
52380;SDS011;38310;52.796;6.942;2023-04-15T01:25:47;17.90;;;12.73;;
52380;SDS011;38310;52.796;6.942;2023-04-15T01:28:14;15.15;;;12.05;;
52380;SDS011;38310;52.796;6.942;2023-04-15T01:30:40;17.13;;;13.93;;
52380;SDS011;38310;52.796;6.942;2023-04-15T01:33:06;14.55;;;11.85;;
52380;SDS011;38310;52.796;6.942;2023-04-15T01:35:31;16.25;;;12.80;;
52380;SDS011;38310;52.796;6.942;2023-04-15T01:38:04;17.23;;;12.02;;
52380;SDS011;38310;52.796;6.942;2023-04-15T01:40:32;14.27;;;10.88;;
52380;SDS011;38310;52.796;6.942;2023-04-15T01:42:58;15.60;;;11.75;;
52380;SDS011;38310;52.796;6.942;2023-04-15T01:45:24;13.23;;;10.27;;
52380;SDS011;38310;52.796;6.942;2023-04-15T01:47:50;15.68;;;12.82;;
52380;SDS011;38310;52.796;6.942;2023-04-15T01:50:16;13.65;;;12.02;;
52380;SDS011;38310;52.796;6.942;2023-04-15T01:52:42;15.80;;;11.57;;
52380;SDS011;38310;52.796;6.942;2023-04-15T01:55:07;16.67;;;14.20;;
52380;SDS011;38310;52.796;6.942;2023-04-15T01:57:33;14.65;;;12.45;;
52380;SDS011;38310;52.796;6.942;2023-04-15T01:59:59;15.23;;;12.63;;
52380;SDS011;38310;52.796;6.942;2023-04-15T02:02:25;17.83;;;12.43;;
52380;SDS011;38310;52.796;6.942;2023-04-15T02:04:50;14.35;;;12.85;;
52380;SDS011;38310;52.796;6.942;2023-04-15T02:07:17;14.15;;;12.68;;
52380;SDS011;38310;52.796;6.942;2023-04-15T02:09:43;19.92;;;13.15;;
52380;SDS011;38310;52.796;6.942;2023-04-15T02:12:10;13.07;;;10.40;;
52380;SDS011;38310;52.796;6.942;2023-04-15T02:14:36;16.42;;;10.75;;
52380;SDS011;38310;52.796;6.942;2023-04-15T02:17:02;12.05;;;10.27;;
52380;SDS011;38310;52.796;6.942;2023-04-15T02:19:31;15.20;;;11.35;;
52380;SDS011;38310;52.796;6.942;2023-04-15T02:21:58;14.55;;;11.30;;
52380;SDS011;38310;52.796;6.942;2023-04-15T02:24:26;13.65;;;10.85;;
52380;SDS011;38310;52.796;6.942;2023-04-15T02:26:53;15.35;;;11.07;;
52380;SDS011;38310;52.796;6.942;2023-04-15T02:29:18;14.48;;;11.60;;
52380;SDS011;38310;52.796;6.942;2023-04-15T02:31:44;12.30;;;10.25;;
52380;SDS011;38310;52.796;6.942;2023-04-15T02:34:10;15.73;;;11.82;;
52380;SDS011;38310;52.796;6.942;2023-04-15T02:36:35;16.95;;;11.40;;
52380;SDS011;38310;52.796;6.942;2023-04-15T02:39:01;12.85;;;10.25;;
52380;SDS011;38310;52.796;6.942;2023-04-15T02:41:28;15.65;;;11.30;;
52380;SDS011;38310;52.796;6.942;2023-04-15T02:43:54;15.88;;;12.68;;
52380;SDS011;38310;52.796;6.942;2023-04-15T02:46:20;14.63;;;11.00;;
52380;SDS011;38310;52.796;6.942;2023-04-15T02:48:47;15.25;;;12.40;;
52380;SDS011;38310;52.796;6.942;2023-04-15T02:51:13;15.68;;;10.88;;
52380;SDS011;38310;52.796;6.942;2023-04-15T02:53:41;17.67;;;10.77;;
52380;SDS011;38310;52.796;6.942;2023-04-15T02:56:07;17.50;;;11.32;;
52380;SDS011;38310;52.796;6.942;2023-04-15T02:58:34;14.25;;;10.50;;
52380;SDS011;38310;52.796;6.942;2023-04-15T03:01:00;15.85;;;11.18;;
52380;SDS011;38310;52.796;6.942;2023-04-15T03:03:26;15.70;;;11.73;;
52380;SDS011;38310;52.796;6.942;2023-04-15T03:05:52;17.25;;;12.50;;
52380;SDS011;38310;52.796;6.942;2023-04-15T03:08:18;14.73;;;11.63;;
52380;SDS011;38310;52.796;6.942;2023-04-15T03:10:45;16.63;;;12.27;;
52380;SDS011;38310;52.796;6.942;2023-04-15T03:13:11;14.73;;;11.55;;
52380;SDS011;38310;52.796;6.942;2023-04-15T03:15:37;17.33;;;12.13;;
52380;SDS011;38310;52.796;6.942;2023-04-15T03:18:03;15.95;;;11.18;;
52380;SDS011;38310;52.796;6.942;2023-04-15T03:20:29;18.05;;;12.00;;
52380;SDS011;38310;52.796;6.942;2023-04-15T03:22:54;15.00;;;12.05;;
52380;SDS011;38310;52.796;6.942;2023-04-15T03:25:20;15.35;;;11.13;;
52380;SDS011;38310;52.796;6.942;2023-04-15T03:27:46;16.40;;;11.50;;
52380;SDS011;38310;52.796;6.942;2023-04-15T03:30:12;15.23;;;11.35;;
52380;SDS011;38310;52.796;6.942;2023-04-15T03:32:38;15.00;;;10.80;;
52380;SDS011;38310;52.796;6.942;2023-04-15T03:35:04;19.65;;;12.75;;
52380;SDS011;38310;52.796;6.942;2023-04-15T03:37:30;17.42;;;12.68;;
52380;SDS011;38310;52.796;6.942;2023-04-15T03:39:56;16.92;;;12.93;;
52380;SDS011;38310;52.796;6.942;2023-04-15T03:42:21;16.77;;;12.10;;
52380;SDS011;38310;52.796;6.942;2023-04-15T03:44:47;19.10;;;12.55;;
52380;SDS011;38310;52.796;6.942;2023-04-15T03:47:13;18.40;;;13.68;;
52380;SDS011;38310;52.796;6.942;2023-04-15T03:49:39;18.88;;;13.63;;
52380;SDS011;38310;52.796;6.942;2023-04-15T03:52:05;17.13;;;13.75;;
52380;SDS011;38310;52.796;6.942;2023-04-15T03:54:31;13.82;;;12.00;;
52380;SDS011;38310;52.796;6.942;2023-04-15T03:56:56;17.80;;;14.20;;
52380;SDS011;38310;52.796;6.942;2023-04-15T03:59:22;18.13;;;12.90;;
52380;SDS011;38310;52.796;6.942;2023-04-15T04:01:48;18.48;;;13.88;;
52380;SDS011;38310;52.796;6.942;2023-04-15T04:04:14;18.70;;;14.13;;
52380;SDS011;38310;52.796;6.942;2023-04-15T04:06:39;17.15;;;12.43;;
52380;SDS011;38310;52.796;6.942;2023-04-15T04:09:05;18.00;;;14.18;;
52380;SDS011;38310;52.796;6.942;2023-04-15T04:11:31;20.05;;;12.80;;
52380;SDS011;38310;52.796;6.942;2023-04-15T04:13:57;19.33;;;13.65;;
52380;SDS011;38310;52.796;6.942;2023-04-15T04:16:23;17.33;;;14.00;;
52380;SDS011;38310;52.796;6.942;2023-04-15T04:18:48;19.10;;;14.25;;
52380;SDS011;38310;52.796;6.942;2023-04-15T04:21:14;20.55;;;14.57;;
52380;SDS011;38310;52.796;6.942;2023-04-15T04:23:40;16.92;;;13.27;;
52380;SDS011;38310;52.796;6.942;2023-04-15T04:26:06;19.20;;;14.40;;
52380;SDS011;38310;52.796;6.942;2023-04-15T04:28:32;18.63;;;14.00;;
52380;SDS011;38310;52.796;6.942;2023-04-15T04:30:59;18.20;;;13.70;;
52380;SDS011;38310;52.796;6.942;2023-04-15T04:33:25;18.73;;;14.13;;
52380;SDS011;38310;52.796;6.942;2023-04-15T04:35:51;21.95;;;16.73;;
52380;SDS011;38310;52.796;6.942;2023-04-15T04:38:17;22.27;;;14.27;;
52380;SDS011;38310;52.796;6.942;2023-04-15T04:40:42;26.27;;;18.42;;
52380;SDS011;38310;52.796;6.942;2023-04-15T04:43:08;26.60;;;17.25;;
52380;SDS011;38310;52.796;6.942;2023-04-15T04:45:34;22.33;;;16.48;;
52380;SDS011;38310;52.796;6.942;2023-04-15T04:48:00;22.58;;;14.93;;
52380;SDS011;38310;52.796;6.942;2023-04-15T04:50:26;25.02;;;16.45;;
52380;SDS011;38310;52.796;6.942;2023-04-15T04:52:52;22.13;;;15.35;;
52380;SDS011;38310;52.796;6.942;2023-04-15T04:55:17;24.25;;;16.05;;
52380;SDS011;38310;52.796;6.942;2023-04-15T04:57:43;29.15;;;19.20;;
52380;SDS011;38310;52.796;6.942;2023-04-15T05:00:09;24.92;;;16.65;;
52380;SDS011;38310;52.796;6.942;2023-04-15T05:02:36;26.70;;;16.48;;
52380;SDS011;38310;52.796;6.942;2023-04-15T05:05:02;23.38;;;16.13;;
52380;SDS011;38310;52.796;6.942;2023-04-15T05:07:28;27.48;;;18.33;;
52380;SDS011;38310;52.796;6.942;2023-04-15T05:09:54;24.85;;;18.02;;
52380;SDS011;38310;52.796;6.942;2023-04-15T05:12:20;25.90;;;17.85;;
52380;SDS011;38310;52.796;6.942;2023-04-15T05:14:46;21.92;;;16.48;;
52380;SDS011;38310;52.796;6.942;2023-04-15T05:17:12;26.05;;;16.85;;
52380;SDS011;38310;52.796;6.942;2023-04-15T05:19:38;24.05;;;16.58;;
52380;SDS011;38310;52.796;6.942;2023-04-15T05:22:04;21.92;;;16.58;;
52380;SDS011;38310;52.796;6.942;2023-04-15T05:24:30;29.42;;;18.13;;
52380;SDS011;38310;52.796;6.942;2023-04-15T05:26:56;22.48;;;16.50;;
52380;SDS011;38310;52.796;6.942;2023-04-15T05:29:21;25.77;;;18.27;;
52380;SDS011;38310;52.796;6.942;2023-04-15T05:31:47;25.85;;;16.42;;
52380;SDS011;38310;52.796;6.942;2023-04-15T05:34:13;28.63;;;19.67;;
52380;SDS011;38310;52.796;6.942;2023-04-15T05:36:40;26.85;;;17.58;;
52380;SDS011;38310;52.796;6.942;2023-04-15T05:39:06;29.05;;;19.58;;
52380;SDS011;38310;52.796;6.942;2023-04-15T05:41:32;28.67;;;19.48;;
52380;SDS011;38310;52.796;6.942;2023-04-15T05:43:58;25.55;;;17.38;;
52380;SDS011;38310;52.796;6.942;2023-04-15T05:46:24;25.75;;;19.42;;
52380;SDS011;38310;52.796;6.942;2023-04-15T05:48:50;28.48;;;19.10;;
52380;SDS011;38310;52.796;6.942;2023-04-15T05:51:16;31.95;;;19.73;;
52380;SDS011;38310;52.796;6.942;2023-04-15T05:53:41;28.95;;;19.92;;
52380;SDS011;38310;52.796;6.942;2023-04-15T05:56:07;32.40;;;22.15;;
52380;SDS011;38310;52.796;6.942;2023-04-15T05:58:33;27.17;;;18.95;;
52380;SDS011;38310;52.796;6.942;2023-04-15T06:00:58;35.05;;;21.13;;
52380;SDS011;38310;52.796;6.942;2023-04-15T06:03:24;30.45;;;21.15;;
52380;SDS011;38310;52.796;6.942;2023-04-15T06:05:50;34.88;;;22.27;;
52380;SDS011;38310;52.796;6.942;2023-04-15T06:08:16;32.47;;;21.90;;
52380;SDS011;38310;52.796;6.942;2023-04-15T06:10:42;36.40;;;25.65;;
52380;SDS011;38310;52.796;6.942;2023-04-15T06:13:07;28.50;;;20.25;;
52380;SDS011;38310;52.796;6.942;2023-04-15T06:15:33;35.80;;;23.63;;
52380;SDS011;38310;52.796;6.942;2023-04-15T06:17:59;36.53;;;22.27;;
52380;SDS011;38310;52.796;6.942;2023-04-15T06:20:24;34.97;;;22.92;;
52380;SDS011;38310;52.796;6.942;2023-04-15T06:22:50;32.03;;;22.88;;
52380;SDS011;38310;52.796;6.942;2023-04-15T06:25:16;33.17;;;21.95;;
52380;SDS011;38310;52.796;6.942;2023-04-15T06:27:42;34.42;;;24.27;;
52380;SDS011;38310;52.796;6.942;2023-04-15T06:30:08;32.95;;;22.75;;
52380;SDS011;38310;52.796;6.942;2023-04-15T06:32:34;33.70;;;21.98;;
52380;SDS011;38310;52.796;6.942;2023-04-15T06:35:00;32.33;;;23.88;;
52380;SDS011;38310;52.796;6.942;2023-04-15T06:37:26;33.03;;;23.60;;
52380;SDS011;38310;52.796;6.942;2023-04-15T06:39:52;36.55;;;26.10;;
52380;SDS011;38310;52.796;6.942;2023-04-15T06:42:18;35.33;;;24.15;;
52380;SDS011;38310;52.796;6.942;2023-04-15T06:44:43;33.95;;;24.23;;
52380;SDS011;38310;52.796;6.942;2023-04-15T06:47:09;36.28;;;24.75;;
52380;SDS011;38310;52.796;6.942;2023-04-15T06:49:37;30.90;;;19.67;;
52380;SDS011;38310;52.796;6.942;2023-04-15T06:52:04;33.63;;;22.48;;
52380;SDS011;38310;52.796;6.942;2023-04-15T06:54:30;34.25;;;20.42;;
52380;SDS011;38310;52.796;6.942;2023-04-15T06:56:56;29.98;;;21.80;;
52380;SDS011;38310;52.796;6.942;2023-04-15T06:59:21;29.95;;;21.45;;
52380;SDS011;38310;52.796;6.942;2023-04-15T07:01:47;26.52;;;19.40;;
52380;SDS011;38310;52.796;6.942;2023-04-15T07:04:13;26.58;;;16.67;;
52380;SDS011;38310;52.796;6.942;2023-04-15T07:06:38;25.95;;;18.73;;
52380;SDS011;38310;52.796;6.942;2023-04-15T07:09:05;25.48;;;18.73;;
52380;SDS011;38310;52.796;6.942;2023-04-15T07:11:31;24.35;;;17.60;;
52380;SDS011;38310;52.796;6.942;2023-04-15T07:13:57;22.52;;;16.55;;
52380;SDS011;38310;52.796;6.942;2023-04-15T07:16:23;24.80;;;17.85;;
52380;SDS011;38310;52.796;6.942;2023-04-15T07:18:48;23.95;;;16.83;;
52380;SDS011;38310;52.796;6.942;2023-04-15T07:21:14;22.15;;;16.77;;
52380;SDS011;38310;52.796;6.942;2023-04-15T07:23:40;25.15;;;17.25;;
52380;SDS011;38310;52.796;6.942;2023-04-15T07:26:07;19.60;;;15.77;;
52380;SDS011;38310;52.796;6.942;2023-04-15T07:28:33;21.67;;;14.38;;
52380;SDS011;38310;52.796;6.942;2023-04-15T07:30:59;18.60;;;14.00;;
52380;SDS011;38310;52.796;6.942;2023-04-15T07:33:25;17.92;;;11.82;;
52380;SDS011;38310;52.796;6.942;2023-04-15T07:35:50;16.27;;;11.77;;
52380;SDS011;38310;52.796;6.942;2023-04-15T07:38:16;16.52;;;10.88;;
52380;SDS011;38310;52.796;6.942;2023-04-15T07:40:42;13.93;;;10.60;;
52380;SDS011;38310;52.796;6.942;2023-04-15T07:43:08;12.93;;;9.70;;
52380;SDS011;38310;52.796;6.942;2023-04-15T07:45:34;13.02;;;9.88;;
52380;SDS011;38310;52.796;6.942;2023-04-15T07:48:00;11.10;;;8.57;;
52380;SDS011;38310;52.796;6.942;2023-04-15T07:50:27;12.23;;;8.68;;
52380;SDS011;38310;52.796;6.942;2023-04-15T07:52:53;11.05;;;8.60;;
52380;SDS011;38310;52.796;6.942;2023-04-15T07:55:18;11.35;;;9.32;;
52380;SDS011;38310;52.796;6.942;2023-04-15T07:57:47;11.48;;;8.70;;
52380;SDS011;38310;52.796;6.942;2023-04-15T08:00:16;12.73;;;9.40;;
52380;SDS011;38310;52.796;6.942;2023-04-15T08:02:42;11.95;;;9.32;;
52380;SDS011;38310;52.796;6.942;2023-04-15T08:05:11;12.75;;;9.05;;
52380;SDS011;38310;52.796;6.942;2023-04-15T08:07:38;10.95;;;8.25;;
52380;SDS011;38310;52.796;6.942;2023-04-15T08:10:04;14.20;;;9.48;;
52380;SDS011;38310;52.796;6.942;2023-04-15T08:12:31;10.32;;;8.23;;
52380;SDS011;38310;52.796;6.942;2023-04-15T08:14:56;9.38;;;8.30;;
52380;SDS011;38310;52.796;6.942;2023-04-15T08:17:22;11.30;;;7.78;;
52380;SDS011;38310;52.796;6.942;2023-04-15T08:19:48;13.38;;;8.55;;
52380;SDS011;38310;52.796;6.942;2023-04-15T08:22:14;13.50;;;8.57;;
52380;SDS011;38310;52.796;6.942;2023-04-15T08:24:40;10.70;;;7.88;;
52380;SDS011;38310;52.796;6.942;2023-04-15T08:27:06;11.35;;;7.95;;
52380;SDS011;38310;52.796;6.942;2023-04-15T08:29:33;11.88;;;8.55;;
52380;SDS011;38310;52.796;6.942;2023-04-15T08:31:59;10.98;;;8.00;;
52380;SDS011;38310;52.796;6.942;2023-04-15T08:34:26;9.55;;;6.18;;
52380;SDS011;38310;52.796;6.942;2023-04-15T08:36:52;9.38;;;6.15;;
52380;SDS011;38310;52.796;6.942;2023-04-15T08:39:18;8.27;;;5.75;;
52380;SDS011;38310;52.796;6.942;2023-04-15T08:41:47;7.82;;;5.43;;
52380;SDS011;38310;52.796;6.942;2023-04-15T08:44:19;7.78;;;5.90;;
52380;SDS011;38310;52.796;6.942;2023-04-15T08:46:46;9.82;;;5.80;;
52380;SDS011;38310;52.796;6.942;2023-04-15T08:49:12;7.18;;;5.45;;
52380;SDS011;38310;52.796;6.942;2023-04-15T08:51:39;6.55;;;5.10;;
52380;SDS011;38310;52.796;6.942;2023-04-15T08:54:06;9.30;;;5.80;;
52380;SDS011;38310;52.796;6.942;2023-04-15T08:56:32;9.70;;;5.63;;
52380;SDS011;38310;52.796;6.942;2023-04-15T08:58:59;8.18;;;5.60;;
52380;SDS011;38310;52.796;6.942;2023-04-15T09:01:25;9.43;;;5.80;;
52380;SDS011;38310;52.796;6.942;2023-04-15T09:03:51;10.20;;;5.50;;
52380;SDS011;38310;52.796;6.942;2023-04-15T09:06:20;8.57;;;5.22;;
52380;SDS011;38310;52.796;6.942;2023-04-15T09:08:47;6.90;;;4.97;;
52380;SDS011;38310;52.796;6.942;2023-04-15T09:11:13;9.27;;;5.38;;
52380;SDS011;38310;52.796;6.942;2023-04-15T09:13:39;7.25;;;4.80;;
52380;SDS011;38310;52.796;6.942;2023-04-15T09:16:05;6.88;;;4.57;;
52380;SDS011;38310;52.796;6.942;2023-04-15T09:18:32;7.50;;;5.53;;
52380;SDS011;38310;52.796;6.942;2023-04-15T09:21:03;6.90;;;4.63;;
52380;SDS011;38310;52.796;6.942;2023-04-15T09:23:35;6.50;;;4.45;;
52380;SDS011;38310;52.796;6.942;2023-04-15T09:26:02;7.55;;;5.22;;
52380;SDS011;38310;52.796;6.942;2023-04-15T09:28:28;7.93;;;4.90;;
52380;SDS011;38310;52.796;6.942;2023-04-15T09:30:58;6.53;;;5.20;;
52380;SDS011;38310;52.796;6.942;2023-04-15T09:33:24;7.60;;;4.97;;
52380;SDS011;38310;52.796;6.942;2023-04-15T09:35:56;6.03;;;3.78;;
52380;SDS011;38310;52.796;6.942;2023-04-15T09:38:22;6.20;;;4.47;;
52380;SDS011;38310;52.796;6.942;2023-04-15T09:40:48;6.38;;;4.30;;
52380;SDS011;38310;52.796;6.942;2023-04-15T09:43:14;6.78;;;4.65;;
52380;SDS011;38310;52.796;6.942;2023-04-15T09:45:51;6.55;;;4.00;;
52380;SDS011;38310;52.796;6.942;2023-04-15T09:48:18;7.13;;;4.47;;
52380;SDS011;38310;52.796;6.942;2023-04-15T09:50:46;6.95;;;3.95;;
52380;SDS011;38310;52.796;6.942;2023-04-15T09:53:19;7.20;;;4.10;;
52380;SDS011;38310;52.796;6.942;2023-04-15T09:56:03;6.32;;;4.03;;
52380;SDS011;38310;52.796;6.942;2023-04-15T09:58:32;5.70;;;4.05;;
52380;SDS011;38310;52.796;6.942;2023-04-15T10:01:01;5.50;;;3.95;;
52380;SDS011;38310;52.796;6.942;2023-04-15T10:03:33;6.53;;;3.97;;
52380;SDS011;38310;52.796;6.942;2023-04-15T10:06:02;5.65;;;3.80;;
52380;SDS011;38310;52.796;6.942;2023-04-15T10:08:30;5.97;;;4.05;;
52380;SDS011;38310;52.796;6.942;2023-04-15T10:10:57;5.78;;;3.97;;
52380;SDS011;38310;52.796;6.942;2023-04-15T10:13:26;6.10;;;3.63;;
52380;SDS011;38310;52.796;6.942;2023-04-15T10:16:03;5.88;;;4.20;;
52380;SDS011;38310;52.796;6.942;2023-04-15T10:18:33;6.78;;;4.03;;
52380;SDS011;38310;52.796;6.942;2023-04-15T10:21:00;7.05;;;3.92;;
52380;SDS011;38310;52.796;6.942;2023-04-15T10:23:26;5.28;;;3.67;;
52380;SDS011;38310;52.796;6.942;2023-04-15T10:25:52;6.82;;;3.70;;
52380;SDS011;38310;52.796;6.942;2023-04-15T10:28:19;7.68;;;4.00;;
52380;SDS011;38310;52.796;6.942;2023-04-15T10:30:47;5.65;;;3.47;;
52380;SDS011;38310;52.796;6.942;2023-04-15T10:33:14;7.00;;;3.80;;
52380;SDS011;38310;52.796;6.942;2023-04-15T10:35:44;7.00;;;3.83;;
52380;SDS011;38310;52.796;6.942;2023-04-15T10:41:15;7.30;;;3.40;;
52380;SDS011;38310;52.796;6.942;2023-04-15T10:43:45;6.53;;;3.08;;
52380;SDS011;38310;52.796;6.942;2023-04-15T10:46:38;7.75;;;3.33;;
52380;SDS011;38310;52.796;6.942;2023-04-15T10:49:11;7.93;;;3.73;;
52380;SDS011;38310;52.796;6.942;2023-04-15T10:51:38;8.38;;;4.18;;
52380;SDS011;38310;52.796;6.942;2023-04-15T10:54:13;6.57;;;3.70;;
52380;SDS011;38310;52.796;6.942;2023-04-15T10:56:49;6.60;;;3.78;;
52380;SDS011;38310;52.796;6.942;2023-04-15T10:59:16;7.82;;;3.90;;
52380;SDS011;38310;52.796;6.942;2023-04-15T11:02:01;5.68;;;4.03;;
52380;SDS011;38310;52.796;6.942;2023-04-15T11:07:35;6.43;;;3.35;;
52380;SDS011;38310;52.796;6.942;2023-04-15T11:12:36;10.82;;;4.18;;
52380;SDS011;38310;52.796;6.942;2023-04-15T11:17:55;5.45;;;3.60;;
52380;SDS011;38310;52.796;6.942;2023-04-15T11:20:21;4.22;;;2.92;;
52380;SDS011;38310;52.796;6.942;2023-04-15T11:22:48;5.22;;;3.63;;
52380;SDS011;38310;52.796;6.942;2023-04-15T11:25:25;7.03;;;3.45;;
52380;SDS011;38310;52.796;6.942;2023-04-15T11:27:53;5.70;;;3.40;;
52380;SDS011;38310;52.796;6.942;2023-04-15T11:30:24;5.25;;;3.40;;
52380;SDS011;38310;52.796;6.942;2023-04-15T11:32:51;4.38;;;3.20;;
52380;SDS011;38310;52.796;6.942;2023-04-15T11:35:18;8.40;;;3.20;;
52380;SDS011;38310;52.796;6.942;2023-04-15T11:37:44;7.88;;;2.90;;
52380;SDS011;38310;52.796;6.942;2023-04-15T11:40:11;5.38;;;2.90;;
52380;SDS011;38310;52.796;6.942;2023-04-15T11:42:39;4.95;;;2.95;;
52380;SDS011;38310;52.796;6.942;2023-04-15T11:45:08;6.40;;;2.92;;
52380;SDS011;38310;52.796;6.942;2023-04-15T11:47:38;5.35;;;3.60;;
52380;SDS011;38310;52.796;6.942;2023-04-15T11:52:56;3.85;;;3.15;;
52380;SDS011;38310;52.796;6.942;2023-04-15T11:55:27;5.47;;;3.30;;
52380;SDS011;38310;52.796;6.942;2023-04-15T11:58:09;5.75;;;3.60;;
52380;SDS011;38310;52.796;6.942;2023-04-15T12:00:37;5.57;;;3.95;;
52380;SDS011;38310;52.796;6.942;2023-04-15T12:03:13;4.65;;;2.88;;
52380;SDS011;38310;52.796;6.942;2023-04-15T12:16:32;6.57;;;3.78;;
52380;SDS011;38310;52.796;6.942;2023-04-15T12:19:04;5.60;;;3.17;;
52380;SDS011;38310;52.796;6.942;2023-04-15T12:21:36;8.18;;;3.08;;
52380;SDS011;38310;52.796;6.942;2023-04-15T12:24:04;7.70;;;3.17;;
52380;SDS011;38310;52.796;6.942;2023-04-15T12:26:37;8.55;;;3.40;;
52380;SDS011;38310;52.796;6.942;2023-04-15T12:29:17;5.45;;;3.40;;
52380;SDS011;38310;52.796;6.942;2023-04-15T12:31:50;6.10;;;3.75;;
52380;SDS011;38310;52.796;6.942;2023-04-15T12:34:16;6.82;;;3.20;;
52380;SDS011;38310;52.796;6.942;2023-04-15T12:36:42;7.78;;;3.30;;
52380;SDS011;38310;52.796;6.942;2023-04-15T12:39:08;10.07;;;3.25;;
52380;SDS011;38310;52.796;6.942;2023-04-15T12:41:34;8.20;;;3.38;;
52380;SDS011;38310;52.796;6.942;2023-04-15T12:44:00;6.18;;;3.10;;
52380;SDS011;38310;52.796;6.942;2023-04-15T12:46:26;6.35;;;3.30;;
52380;SDS011;38310;52.796;6.942;2023-04-15T12:48:52;5.03;;;2.83;;
52380;SDS011;38310;52.796;6.942;2023-04-15T12:51:18;6.75;;;2.95;;
52380;SDS011;38310;52.796;6.942;2023-04-15T12:53:47;9.20;;;3.13;;
52380;SDS011;38310;52.796;6.942;2023-04-15T12:56:14;6.53;;;3.03;;
52380;SDS011;38310;52.796;6.942;2023-04-15T12:58:40;5.80;;;2.80;;
52380;SDS011;38310;52.796;6.942;2023-04-15T13:01:07;9.10;;;3.67;;
52380;SDS011;38310;52.796;6.942;2023-04-15T13:03:34;9.00;;;4.00;;
52380;SDS011;38310;52.796;6.942;2023-04-15T13:05:59;8.32;;;3.72;;
52380;SDS011;38310;52.796;6.942;2023-04-15T13:08:26;7.13;;;4.05;;
52380;SDS011;38310;52.796;6.942;2023-04-15T13:10:52;9.80;;;4.13;;
52380;SDS011;38310;52.796;6.942;2023-04-15T13:13:17;6.03;;;4.00;;
52380;SDS011;38310;52.796;6.942;2023-04-15T13:15:43;6.90;;;4.00;;
52380;SDS011;38310;52.796;6.942;2023-04-15T13:18:10;8.13;;;4.22;;
52380;SDS011;38310;52.796;6.942;2023-04-15T13:20:35;7.80;;;3.83;;
52380;SDS011;38310;52.796;6.942;2023-04-15T13:23:01;7.15;;;4.07;;
52380;SDS011;38310;52.796;6.942;2023-04-15T13:25:27;8.13;;;4.18;;
52380;SDS011;38310;52.796;6.942;2023-04-15T13:27:53;10.27;;;4.07;;
52380;SDS011;38310;52.796;6.942;2023-04-15T13:30:18;7.70;;;3.65;;
52380;SDS011;38310;52.796;6.942;2023-04-15T13:32:44;6.30;;;3.58;;
52380;SDS011;38310;52.796;6.942;2023-04-15T13:35:10;8.38;;;3.85;;
52380;SDS011;38310;52.796;6.942;2023-04-15T13:37:36;6.35;;;3.67;;
52380;SDS011;38310;52.796;6.942;2023-04-15T13:40:01;7.20;;;4.25;;
52380;SDS011;38310;52.796;6.942;2023-04-15T13:42:27;7.80;;;3.92;;
52380;SDS011;38310;52.796;6.942;2023-04-15T13:44:53;6.18;;;4.20;;
52380;SDS011;38310;52.796;6.942;2023-04-15T13:47:19;6.65;;;3.97;;
52380;SDS011;38310;52.796;6.942;2023-04-15T13:49:45;8.68;;;4.43;;
52380;SDS011;38310;52.796;6.942;2023-04-15T13:52:11;8.93;;;4.30;;
52380;SDS011;38310;52.796;6.942;2023-04-15T13:54:37;7.90;;;4.45;;
52380;SDS011;38310;52.796;6.942;2023-04-15T13:57:03;9.40;;;3.92;;
52380;SDS011;38310;52.796;6.942;2023-04-15T13:59:30;7.38;;;3.60;;
52380;SDS011;38310;52.796;6.942;2023-04-15T14:01:56;10.02;;;3.83;;
52380;SDS011;38310;52.796;6.942;2023-04-15T14:04:22;5.90;;;3.83;;
52380;SDS011;38310;52.796;6.942;2023-04-15T14:06:48;8.63;;;4.07;;
52380;SDS011;38310;52.796;6.942;2023-04-15T14:09:14;7.90;;;4.68;;
52380;SDS011;38310;52.796;6.942;2023-04-15T14:11:39;9.80;;;4.43;;
52380;SDS011;38310;52.796;6.942;2023-04-15T14:14:05;12.63;;;4.90;;
52380;SDS011;38310;52.796;6.942;2023-04-15T14:16:31;11.32;;;5.05;;
52380;SDS011;38310;52.796;6.942;2023-04-15T14:18:58;9.65;;;4.75;;
52380;SDS011;38310;52.796;6.942;2023-04-15T14:21:24;7.70;;;4.53;;
52380;SDS011;38310;52.796;6.942;2023-04-15T14:23:54;11.73;;;5.53;;
52380;SDS011;38310;52.796;6.942;2023-04-15T14:26:19;12.55;;;5.50;;
52380;SDS011;38310;52.796;6.942;2023-04-15T14:28:45;9.73;;;5.13;;
52380;SDS011;38310;52.796;6.942;2023-04-15T14:31:12;9.27;;;5.40;;
52380;SDS011;38310;52.796;6.942;2023-04-15T14:33:38;13.75;;;5.40;;
52380;SDS011;38310;52.796;6.942;2023-04-15T14:36:04;11.20;;;5.03;;
52380;SDS011;38310;52.796;6.942;2023-04-15T14:38:30;12.15;;;5.05;;
52380;SDS011;38310;52.796;6.942;2023-04-15T14:41:02;10.82;;;5.60;;
52380;SDS011;38310;52.796;6.942;2023-04-15T14:43:28;11.23;;;5.95;;
52380;SDS011;38310;52.796;6.942;2023-04-15T14:45:54;10.40;;;5.72;;
52380;SDS011;38310;52.796;6.942;2023-04-15T14:48:19;8.77;;;5.55;;
52380;SDS011;38310;52.796;6.942;2023-04-15T14:50:45;10.15;;;5.70;;
52380;SDS011;38310;52.796;6.942;2023-04-15T14:53:11;10.27;;;5.97;;
52380;SDS011;38310;52.796;6.942;2023-04-15T14:55:36;12.80;;;6.60;;